Hollis, Oklahoma
Current Conditions -  °F | °C
As of 7:53 PM on Saturday 22 Nov 2014 (Local Time) from KCDS Reporting Station
Overcast Overcast  
Wind Chill: 54°   Ceiling: 300
Heat Index: 54°   Visibility: 10mi
Dew Point: 52°   Wind: 12mph
Humidity: 93%   Direction: 160°SSE
Pressure: 29.75"   Gusts: NA
Location:  34.69°N, 99.91°W
Report Text: KCDS 230153Z AUTO 16010KT 10SM OVC003 12/11 A2975 RMK AO2 SLP070 T01220111
Loading
Personal Weather Stations






























Interactive Weather Map New forecast layout! Learn more

10-Day Weather Forecast

Advertisements
Track Severe Weather on mobile